Time;durP1;ratioP1;P1;durP2;ratioP2;P2;SDS_P1;SDS_P2;PMS_P1;PMS_P2;Temp;Humidity;BMP_temperature;BMP_pressure;BME280_temperature;BME280_humidity;BME280_pressure;Samples;Min_cycle;Max_cycle;Signal;HPM_P1;HPM_P2
2021/12/17 00:59:15;;;;;;;30.72;13.28;;;;;;;4.38;100.00;100340.80;4175711;82;21124;-88
2021/12/17 01:05:23;;;;;;;24.27;12.03;;;;;;;4.34;100.00;100338.97;4183339;82;21079;-87
2021/12/17 01:11:25;;;;;;;26.93;11.20;;;;;;;4.33;100.00;100342.80;4177045;83;21071;-88
2021/12/17 01:17:50;;;;;;;24.18;11.15;;;;;;;4.29;100.00;100329.03;4174501;83;21473;-86
2021/12/17 01:24:09;;;;;;;22.22;11.35;;;;;;;4.27;99.89;100319.61;4085286;85;21031;-87
2021/12/17 01:36:32;;;;;;;20.80;10.45;;;;;;;4.13;99.96;100308.78;4094451;84;21290;-87
2021/12/17 01:42:34;;;;;;;20.95;9.60;;;;;;;4.12;99.87;100312.58;4088418;85;21067;-88
2021/12/17 01:48:52;;;;;;;22.48;10.90;;;;;;;4.09;99.71;100317.24;4071473;86;21672;-88
2021/12/17 02:01:06;;;;;;;25.02;11.22;;;;;;;4.12;99.76;100334.25;4024789;87;21058;-86
2021/12/17 02:07:07;;;;;;;22.42;10.72;;;;;;;4.15;99.74;100327.45;4065915;86;21068;-87
2021/12/17 02:19:45;;;;;;;30.17;11.53;;;;;;;4.17;99.63;100309.77;4060967;86;21046;-86
2021/12/17 02:32:01;;;;;;;22.62;10.65;;;;;;;4.17;99.72;100299.47;4055164;86;21656;-87
2021/12/17 02:38:04;;;;;;;26.65;10.90;;;;;;;4.17;99.65;100298.93;4057851;86;22078;-87
2021/12/17 02:50:40;;;;;;;25.85;10.18;;;;;;;4.18;99.38;100292.39;4062485;86;21149;-89
2021/12/17 02:56:42;;;;;;;22.00;10.25;;;;;;;4.18;99.30;100295.67;4068347;86;21116;-88
2021/12/17 03:02:46;;;;;;;23.98;10.25;;;;;;;4.17;99.21;100288.63;4069101;86;21102;-88
2021/12/17 03:08:50;;;;;;;21.20;9.53;;;;;;;4.15;99.05;100281.37;4057652;86;21129;-86
2021/12/17 03:15:00;;;;;;;20.37;7.80;;;;;;;4.14;98.88;100288.70;4062783;86;21621;-86
2021/12/17 03:27:16;;;;;;;18.35;7.22;;;;;;;4.12;98.42;100287.40;4054324;86;21522;-87
2021/12/17 03:33:20;;;;;;;22.42;8.43;;;;;;;4.12;98.24;100294.17;4062326;86;21137;-88
2021/12/17 03:39:25;;;;;;;20.85;7.87;;;;;;;4.10;97.97;100293.09;4062262;86;21672;-87
2021/12/17 03:45:29;;;;;;;18.57;7.75;;;;;;;4.11;97.92;100289.84;4059375;86;21069;-88
2021/12/17 03:51:36;;;;;;;18.07;6.50;;;;;;;4.07;97.73;100298.33;4057903;86;22073;-89
2021/12/17 03:57:36;;;;;;;19.67;7.17;;;;;;;4.06;97.66;100286.68;4046060;86;21106;-91
2021/12/17 04:03:38;;;;;;;22.77;8.60;;;;;;;4.05;97.43;100291.86;4031135;86;21041;-88
2021/12/17 04:09:42;;;;;;;23.77;8.50;;;;;;;4.04;97.44;100298.94;4041155;83;32024;-87
2021/12/17 04:15:53;;;;;;;24.95;7.37;;;;;;;4.02;97.32;100297.06;4015594;86;21087;-87
2021/12/17 04:21:48;;;;;;;15.80;6.58;;;;;;;4.00;97.22;100300.08;4033002;86;21050;-87
2021/12/17 04:27:49;;;;;;;18.73;6.55;;;;;;;3.96;97.03;100294.21;4030233;86;21614;-88
2021/12/17 04:33:51;;;;;;;15.40;5.37;;;;;;;3.94;96.60;100285.03;4028832;86;21139;-89
2021/12/17 04:39:53;;;;;;;13.32;5.95;;;;;;;3.95;96.41;100284.45;4027843;86;21105;-89
2021/12/17 04:58:29;;;;;;;12.20;4.90;;;;;;;3.89;95.76;100281.05;3990809;86;21070;-89
2021/12/17 05:04:30;;;;;;;15.23;6.05;;;;;;;3.88;95.33;100294.91;3986731;87;22015;-87
2021/12/17 05:23:02;;;;;;;19.57;6.83;;;;;;;3.85;94.73;100268.41;4006623;87;21577;-87
2021/12/17 05:29:04;;;;;;;25.45;7.70;;;;;;;3.82;94.63;100275.78;3990857;88;21061;-87
2021/12/17 05:35:08;;;;;;;20.23;7.22;;;;;;;3.83;94.73;100271.97;3959559;89;21094;-87
2021/12/17 05:41:11;;;;;;;17.95;6.70;;;;;;;3.81;94.71;100265.49;3984157;87;21138;-88
2021/12/17 05:47:14;;;;;;;16.45;6.58;;;;;;;3.81;94.61;100251.95;3974394;88;21085;-87
2021/12/17 05:53:19;;;;;;;14.75;5.85;;;;;;;3.82;94.42;100278.50;3981835;88;21059;-88
2021/12/17 05:59:21;;;;;;;14.90;6.20;;;;;;;3.78;94.22;100265.28;3932808;88;21673;-88
2021/12/17 06:05:24;;;;;;;16.02;6.95;;;;;;;3.79;94.23;100262.84;3921173;89;21038;-87
2021/12/17 06:11:26;;;;;;;18.87;8.00;;;;;;;3.76;94.15;100277.77;4002374;87;21073;-88
2021/12/17 06:17:27;;;;;;;15.98;7.95;;;;;;;3.77;94.25;100287.52;4017638;87;21039;-87
2021/12/17 06:23:28;;;;;;;25.08;10.53;;;;;;;3.74;93.96;100292.19;4016094;87;21003;-87
2021/12/17 06:29:30;;;;;;;18.20;8.73;;;;;;;3.76;94.02;100298.08;4027974;87;21051;-89
2021/12/17 06:35:34;;;;;;;19.60;7.37;;;;;;;3.76;93.91;100312.98;4005529;86;21064;-88
2021/12/17 06:41:38;;;;;;;22.98;10.28;;;;;;;3.76;93.80;100312.20;4044164;84;21362;-89
2021/12/17 06:47:39;;;;;;;14.63;8.20;;;;;;;3.72;93.46;100317.40;4021366;86;21098;-89
2021/12/17 07:44:33;;;;;;;14.53;7.67;;;;;;;3.64;92.54;100311.31;4037880;82;21204;-87
2021/12/17 07:50:39;;;;;;;13.43;4.83;;;;;;;3.64;92.41;100297.77;3988621;87;21211;-88
2021/12/17 07:56:43;;;;;;;19.25;8.00;;;;;;;3.65;92.05;100304.00;4011977;86;21080;-87
2021/12/17 08:02:46;;;;;;;15.70;7.55;;;;;;;3.66;92.11;100304.23;4005102;86;21152;-89
2021/12/17 08:08:49;;;;;;;19.42;9.13;;;;;;;3.67;92.01;100297.71;3986115;88;21144;-86
2021/12/17 08:14:59;;;;;;;24.30;9.05;;;;;;;3.70;92.01;100298.47;3992908;87;21089;-88
2021/12/17 08:27:33;;;;;;;16.52;7.00;;;;;;;3.78;92.30;100293.72;4013437;86;21591;-89
2021/12/17 08:33:32;;;;;;;24.32;7.47;;;;;;;3.80;91.97;100305.07;3991570;87;21740;-92
2021/12/17 08:39:35;;;;;;;19.62;8.73;;;;;;;3.84;92.19;100310.94;3992458;87;21053;-88
2021/12/17 08:45:38;;;;;;;18.82;7.20;;;;;;;3.85;91.80;100311.22;4022542;85;21117;-88
2021/12/17 08:51:48;;;;;;;26.80;8.83;;;;;;;3.88;91.81;100316.58;4001799;86;21078;-88
2021/12/17 08:57:49;;;;;;;24.00;8.60;;;;;;;3.89;92.05;100322.23;4061256;85;21034;-87
2021/12/17 09:03:50;;;;;;;21.97;6.62;;;;;;;3.98;92.04;100338.86;4053295;86;21475;-88
2021/12/17 09:10:06;;;;;;;20.57;7.17;;;;;;;3.96;91.84;100332.14;4063763;86;21072;-88
2021/12/17 09:16:08;;;;;;;26.07;7.03;;;;;;;3.98;91.66;100338.86;4041645;85;21099;-87
2021/12/17 09:22:12;;;;;;;22.67;6.95;;;;;;;4.04;90.12;100347.14;4063339;86;21084;-88
2021/12/17 09:28:19;;;;;;;23.27;7.58;;;;;;;4.07;91.38;100341.69;4070119;85;21056;-89
2021/12/17 09:34:25;;;;;;;20.73;7.20;;;;;;;4.11;91.34;100339.43;4066537;86;21088;-89
2021/12/17 09:40:29;;;;;;;19.25;7.03;;;;;;;4.16;91.41;100337.17;4047947;86;21136;-88
2021/12/17 09:46:30;;;;;;;19.15;7.20;;;;;;;4.18;91.19;100337.69;4061232;85;21068;-89
2021/12/17 09:52:32;;;;;;;27.07;8.33;;;;;;;4.18;91.14;100314.08;4132535;84;21099;-87
2021/12/17 09:58:35;;;;;;;17.00;7.95;;;;;;;4.16;90.67;100309.53;4148979;85;21541;-87
2021/12/17 10:04:44;;;;;;;21.60;7.72;;;;;;;4.13;90.85;100306.61;4114139;85;21064;-87
2021/12/17 10:10:50;;;;;;;22.87;8.13;;;;;;;4.18;90.96;100296.46;4067516;86;21729;-90
2021/12/17 10:16:51;;;;;;;27.15;8.40;;;;;;;4.20;91.00;100286.12;4070968;86;21061;-88
2021/12/17 10:23:11;;;;;;;20.62;7.60;;;;;;;4.21;90.71;100287.72;4066958;86;21103;-87
2021/12/17 10:29:09;;;;;;;20.92;7.92;;;;;;;4.25;90.61;100293.35;4065830;86;21068;-90
2021/12/17 10:35:21;;;;;;;22.65;7.15;;;;;;;4.28;90.63;100277.83;4074933;86;21379;-88
2021/12/17 10:41:26;;;;;;;26.37;8.93;;;;;;;4.29;90.32;100268.05;4102516;86;21021;-87
2021/12/17 10:47:34;;;;;;;24.32;7.58;;;;;;;4.30;90.31;100259.37;4097498;86;21066;-88
2021/12/17 10:53:33;;;;;;;27.57;8.83;;;;;;;4.28;90.31;100263.73;4084998;86;21024;-89
2021/12/17 10:59:37;;;;;;;27.75;7.87;;;;;;;4.28;90.28;100269.16;4088997;85;21036;-87
2021/12/17 11:05:40;;;;;;;28.70;9.85;;;;;;;4.29;90.05;100269.40;4091806;86;21054;-87
2021/12/17 11:11:42;;;;;;;24.05;8.05;;;;;;;4.32;89.94;100266.66;4099169;85;21475;-86
2021/12/17 11:17:55;;;;;;;14.87;6.35;;;;;;;4.34;89.97;100261.71;4093246;85;21771;-87
2021/12/17 11:23:58;;;;;;;16.65;6.92;;;;;;;4.36;89.23;100264.93;4098894;86;21092;-87
2021/12/17 11:30:02;;;;;;;21.52;7.17;;;;;;;4.33;89.49;100268.25;4091915;86;21974;-87
2021/12/17 11:36:04;;;;;;;27.32;7.37;;;;;;;4.34;89.61;100253.03;4099454;85;21131;-89
2021/12/17 11:42:28;;;;;;;13.98;7.45;;;;;;;4.37;89.24;100258.42;4085877;86;21091;-89
2021/12/17 11:48:31;;;;;;;17.95;7.22;;;;;;;4.41;89.29;100254.80;3988134;88;22319;-89
2021/12/17 11:54:35;;;;;;;22.55;9.25;;;;;;;4.39;89.11;100255.64;4041701;86;21098;-87
2021/12/17 12:00:48;;;;;;;24.85;9.65;;;;;;;4.41;89.24;100252.08;4032425;86;21446;-87
2021/12/17 12:07:08;;;;;;;18.35;7.78;;;;;;;4.40;89.21;100249.11;4055394;86;21063;-88
2021/12/17 12:13:09;;;;;;;17.90;7.60;;;;;;;4.40;88.77;100252.39;4042336;86;21582;-87
2021/12/17 12:19:11;;;;;;;21.77;7.08;;;;;;;4.35;88.75;100249.78;3986618;84;144083;-88
2021/12/17 12:25:31;;;;;;;21.75;7.15;;;;;;;4.30;88.61;100246.63;3980746;88;21104;-90
2021/12/17 12:31:43;;;;;;;16.55;7.28;;;;;;;4.28;87.70;100239.88;3981144;88;21172;-93
2021/12/17 12:37:46;;;;;;;23.52;7.42;;;;;;;4.22;87.03;100243.81;3986442;88;21095;-87
2021/12/17 12:43:48;;;;;;;19.12;7.70;;;;;;;4.17;85.83;100257.46;3966701;88;21064;-87
2021/12/17 12:50:07;;;;;;;22.62;8.73;;;;;;;4.12;86.14;100259.73;3973430;87;21102;-90
2021/12/17 12:56:17;;;;;;;20.27;7.97;;;;;;;4.11;86.61;100267.62;4028878;87;21570;-89
2021/12/17 13:02:19;;;;;;;16.75;8.13;;;;;;;4.09;86.64;100268.47;4030116;87;21063;-88
2021/12/17 13:08:23;;;;;;;20.00;7.75;;;;;;;4.07;86.54;100255.76;3981473;87;22465;-88
2021/12/17 13:14:26;;;;;;;16.95;8.30;;;;;;;4.00;85.45;100253.20;4009244;86;21115;-87
2021/12/17 13:26:32;;;;;;;21.15;10.00;;;;;;;3.94;85.97;100254.41;3985515;87;22275;-89
2021/12/17 13:32:34;;;;;;;21.25;8.73;;;;;;;3.93;86.09;100243.34;4052287;86;21064;-88
2021/12/17 13:38:36;;;;;;;19.90;8.40;;;;;;;3.92;86.11;100245.78;4052242;87;21131;-88
2021/12/17 13:44:45;;;;;;;21.62;9.20;;;;;;;3.90;86.06;100239.88;4036789;87;21224;-90
2021/12/17 13:50:50;;;;;;;28.35;9.98;;;;;;;3.88;86.09;100248.85;3972873;87;22076;-88
2021/12/17 13:56:57;;;;;;;22.50;9.00;;;;;;;3.88;86.08;100253.73;3878611;90;21110;-90
2021/12/17 14:02:59;;;;;;;24.72;10.60;;;;;;;3.86;85.87;100243.73;3908329;89;21539;-89
2021/12/17 14:09:01;;;;;;;28.27;12.18;;;;;;;3.85;85.94;100251.63;3894231;90;21121;-89
2021/12/17 14:15:08;;;;;;;25.92;11.78;;;;;;;3.83;85.98;100248.94;3900252;90;21421;-88
2021/12/17 14:21:10;;;;;;;22.85;11.35;;;;;;;3.81;86.09;100242.47;3889030;90;21449;-90
2021/12/17 14:27:11;;;;;;;32.30;13.35;;;;;;;3.81;85.99;100251.14;3916741;89;21144;-89
2021/12/17 14:33:19;;;;;;;21.97;11.03;;;;;;;3.78;86.00;100262.58;3921352;89;21501;-88
2021/12/17 14:39:32;;;;;;;32.25;14.35;;;;;;;3.77;86.03;100256.38;3914813;89;21152;-90
2021/12/17 14:45:35;;;;;;;31.30;14.73;;;;;;;3.75;86.05;100247.73;3975369;87;21094;-89
2021/12/17 15:04:03;;;;;;;43.80;19.77;;;;;;;3.69;86.15;100263.02;3945258;88;21110;-88
2021/12/17 15:10:08;;;;;;;35.38;17.37;;;;;;;3.66;86.17;100249.54;3900805;88;21534;-88
2021/12/17 15:16:10;;;;;;;36.40;18.00;;;;;;;3.64;86.39;100247.67;3875512;90;21203;-88
2021/12/17 15:22:11;;;;;;;34.13;15.05;;;;;;;3.62;86.34;100252.58;3936048;88;21077;-89
2021/12/17 15:28:17;;;;;;;34.15;15.23;;;;;;;3.62;86.24;100250.44;3971204;87;21164;-88
2021/12/17 15:34:19;;;;;;;37.67;15.97;;;;;;;3.62;86.20;100260.70;3967951;88;21148;-89
2021/12/17 15:40:24;;;;;;;33.50;15.98;;;;;;;3.61;86.04;100256.94;3967110;88;21157;-87
2021/12/17 15:46:25;;;;;;;36.28;17.50;;;;;;;3.59;86.00;100265.90;3957193;88;21596;-88
2021/12/17 15:52:28;;;;;;;39.25;18.05;;;;;;;3.59;86.04;100268.61;3997994;87;22132;-87
2021/12/17 15:58:29;;;;;;;54.90;23.50;;;;;;;3.58;86.13;100279.20;3984689;86;21147;-89
2021/12/17 16:04:36;;;;;;;39.80;18.32;;;;;;;3.57;86.08;100292.49;4020452;87;21202;-88
2021/12/17 16:23:14;;;;;;;36.15;16.85;;;;;;;3.54;86.05;100272.78;4004601;87;21750;-88
2021/12/17 16:29:18;;;;;;;35.78;16.75;;;;;;;3.53;86.06;100274.68;4020533;86;21080;-91
2021/12/17 16:35:19;;;;;;;32.70;16.00;;;;;;;3.54;85.99;100275.49;3922528;89;21085;-89
2021/12/17 16:41:20;;;;;;;38.95;16.82;;;;;;;3.54;86.04;100289.03;3870879;91;21184;-90
2021/12/17 16:47:24;;;;;;;31.97;14.83;;;;;;;3.54;85.97;100271.43;4002509;87;21197;-88
2021/12/17 16:53:26;;;;;;;35.80;14.87;;;;;;;3.54;86.01;100279.55;4003939;87;21144;-88
2021/12/17 16:59:29;;;;;;;31.93;14.78;;;;;;;3.54;85.99;100282.27;3979309;86;22687;-89
2021/12/17 17:05:32;;;;;;;37.13;13.93;;;;;;;3.53;86.09;100273.87;4004620;87;21057;-89
2021/12/17 17:11:36;;;;;;;35.20;14.85;;;;;;;3.51;86.03;100280.94;3972835;87;21131;-89
2021/12/17 17:17:37;;;;;;;28.05;14.18;;;;;;;3.52;85.99;100284.45;4002617;87;21735;-88
2021/12/17 17:23:41;;;;;;;29.50;13.48;;;;;;;3.51;86.00;100287.70;4002623;87;21089;-88
2021/12/17 17:29:44;;;;;;;31.20;13.10;;;;;;;3.51;86.01;100296.39;4019804;87;21143;-89
2021/12/17 17:35:45;;;;;;;33.88;14.93;;;;;;;3.50;85.99;100299.64;3864660;90;21086;-89
2021/12/17 17:41:46;;;;;;;35.83;14.47;;;;;;;3.49;86.14;100303.46;3917174;89;21135;-90
2021/12/17 17:47:50;;;;;;;36.48;16.20;;;;;;;3.49;86.07;100300.75;3987289;87;21627;-89
2021/12/17 17:53:53;;;;;;;32.33;14.65;;;;;;;3.48;86.15;100303.77;3963690;86;21107;-88
2021/12/17 17:59:54;;;;;;;33.28;14.28;;;;;;;3.49;86.12;100312.13;3927172;88;21123;-89
2021/12/17 18:05:58;;;;;;;31.55;13.38;;;;;;;3.47;86.16;100304.30;3939197;88;21117;-90
2021/12/17 18:12:03;;;;;;;27.05;11.65;;;;;;;3.47;86.11;100307.00;3938920;88;21983;-88
2021/12/17 18:18:05;;;;;;;29.37;14.13;;;;;;;3.48;86.10;100287.52;3949780;88;21109;-88
2021/12/17 18:24:06;;;;;;;38.98;11.90;;;;;;;3.48;86.09;100291.58;3956718;88;22105;-89
2021/12/17 18:30:13;;;;;;;28.02;11.33;;;;;;;3.47;86.11;100306.19;3983040;87;21161;-89
2021/12/17 18:36:14;;;;;;;;;;;;;;;3.47;86.12;100307.00;3969371;87;21160;-87
2021/12/17 18:48:35;;;;;;;30.62;13.70;;;;;;;3.47;86.14;100310.25;3975721;88;21203;-90
2021/12/17 18:54:37;;;;;;;24.67;11.28;;;;;;;3.46;86.19;100295.91;3991771;87;21068;-90
2021/12/17 19:00:43;;;;;;;32.03;11.45;;;;;;;3.45;86.16;100296.20;3980225;88;22428;-89
2021/12/17 19:06:49;;;;;;;30.88;11.12;;;;;;;3.45;86.20;100305.67;3945191;88;21652;-89
2021/12/17 19:12:51;;;;;;;32.28;14.33;;;;;;;3.44;86.17;100304.08;3983673;88;21688;-91
2021/12/17 19:19:06;;;;;;;29.67;11.60;;;;;;;3.43;86.16;100299.78;3980060;88;21552;-89
2021/12/17 19:24:56;;;;;;;26.30;11.20;;;;;;;3.42;86.21;100323.87;3990405;87;21132;-90
2021/12/17 19:30:57;;;;;;;31.75;11.38;;;;;;;3.41;86.23;100326.33;3979208;88;21147;-90
2021/12/17 19:36:59;;;;;;;26.23;10.35;;;;;;;3.38;86.26;100329.09;3955634;87;21104;-90
2021/12/17 19:43:00;;;;;;;23.73;7.97;;;;;;;3.37;86.25;100346.41;3952201;88;21782;-91
2021/12/17 19:49:47;;;;;;;22.70;9.90;;;;;;;3.36;86.24;100331.82;3949368;87;21125;-89
2021/12/17 19:55:09;;;;;;;28.90;9.68;;;;;;;3.36;86.19;100335.34;3977894;87;21080;-89
2021/12/17 20:01:10;;;;;;;19.85;10.00;;;;;;;3.28;86.41;100337.90;4021294;87;21428;-89
2021/12/17 20:07:12;;;;;;;19.73;8.93;;;;;;;3.15;86.93;100353.79;4028923;86;21183;-90
2021/12/17 20:13:14;;;;;;;24.32;8.20;;;;;;;3.06;86.97;100354.20;4035996;87;21739;-89
2021/12/17 20:19:15;;;;;;;21.20;7.85;;;;;;;2.98;87.07;100363.51;4028465;87;21390;-89
2021/12/17 20:25:18;;;;;;;30.37;11.15;;;;;;;2.85;87.68;100358.27;4023307;86;21766;-87
2021/12/17 20:31:19;;;;;;;18.65;9.68;;;;;;;2.81;87.69;100367.27;3972277;88;21626;-86
2021/12/17 20:37:24;;;;;;;19.32;8.28;;;;;;;2.75;88.21;100368.42;3915406;89;21097;-87
2021/12/17 20:43:33;;;;;;;20.90;8.95;;;;;;;2.73;88.69;100361.96;3899387;90;21154;-86
2021/12/17 20:49:30;;;;;;;25.32;8.43;;;;;;;2.75;88.90;100362.48;3899213;90;21726;-88
2021/12/17 20:55:33;;;;;;;24.10;9.05;;;;;;;2.73;88.53;100371.96;3896984;90;21232;-86
2021/12/17 21:01:36;;;;;;;23.07;9.30;;;;;;;2.69;89.07;100369.59;3874697;90;21134;-86
2021/12/17 21:07:39;;;;;;;30.82;10.08;;;;;;;2.69;89.26;100373.08;4030572;87;21946;-87
2021/12/17 21:13:48;;;;;;;32.48;11.88;;;;;;;2.65;89.14;100377.47;4034367;87;21713;-86
2021/12/17 21:19:45;;;;;;;25.00;10.50;;;;;;;2.61;89.50;100381.86;4022722;87;21109;-88
2021/12/17 21:25:50;;;;;;;25.23;10.48;;;;;;;2.62;89.90;100391.56;4026744;87;21152;-87
2021/12/17 21:31:54;;;;;;;24.67;9.50;;;;;;;2.60;89.48;100412.67;4027613;87;22286;-87
2021/12/17 21:38:00;;;;;;;25.95;10.23;;;;;;;2.58;89.62;100414.06;4040187;86;21586;-88
2021/12/17 21:44:04;;;;;;;32.67;13.28;;;;;;;2.55;89.98;100408.67;4033227;87;21060;-87
2021/12/17 21:50:12;;;;;;;32.37;12.87;;;;;;;2.52;90.39;100409.25;4031361;87;21136;-86
2021/12/17 21:56:16;;;;;;;34.40;13.57;;;;;;;2.52;90.44;100403.06;3973633;87;21868;-88
2021/12/17 22:02:18;;;;;;;32.60;11.70;;;;;;;2.49;90.53;100415.23;3970833;88;21088;-86
2021/12/17 22:08:22;;;;;;;37.08;12.93;;;;;;;2.47;90.48;100419.33;3954154;88;21983;-87
2021/12/17 22:14:26;;;;;;;24.25;11.68;;;;;;;2.44;90.54;100428.83;3873660;90;21119;-87
2021/12/17 22:20:33;;;;;;;25.97;11.55;;;;;;;2.44;90.80;100412.61;3867298;90;21127;-85
2021/12/17 22:26:31;;;;;;;28.10;12.10;;;;;;;2.45;90.82;100429.61;3847938;90;21594;-88
2021/12/17 22:32:33;;;;;;;29.65;10.65;;;;;;;2.43;90.92;100433.95;3850418;90;21124;-87
2021/12/17 22:38:34;;;;;;;24.63;9.03;;;;;;;2.45;90.74;100429.08;3870345;90;21168;-87
2021/12/17 22:44:37;;;;;;;21.37;8.65;;;;;;;2.45;90.93;100434.48;3965589;87;21170;-88
2021/12/17 22:50:40;;;;;;;29.50;9.65;;;;;;;2.47;90.96;100449.06;3954632;88;21104;-86
2021/12/17 22:56:41;;;;;;;28.65;10.08;;;;;;;2.47;90.90;100451.23;4009516;87;21080;-88
2021/12/17 23:02:43;;;;;;;30.40;10.10;;;;;;;2.45;90.88;100464.21;4027418;87;21386;-87
2021/12/17 23:14:56;;;;;;;26.12;11.30;;;;;;;2.45;91.09;100479.61;4003337;87;21099;-87
2021/12/17 23:20:58;;;;;;;32.75;12.58;;;;;;;2.44;91.19;100476.12;4006774;87;21054;-87
2021/12/17 23:27:00;;;;;;;33.42;13.32;;;;;;;2.44;91.32;100469.91;4020626;87;21071;-88
2021/12/17 23:33:05;;;;;;;28.27;11.90;;;;;;;2.44;91.48;100480.72;4030581;86;21384;-87
2021/12/17 23:39:07;;;;;;;36.83;14.05;;;;;;;2.45;91.63;100482.31;3953496;89;21103;-87
2021/12/17 23:45:09;;;;;;;41.95;16.25;;;;;;;2.43;91.73;100491.25;3834026;90;21087;-87
2021/12/17 23:51:11;;;;;;;37.40;15.70;;;;;;;2.42;91.81;100489.64;3929323;89;21123;-89
2021/12/17 23:57:14;;;;;;;32.30;14.65;;;;;;;2.40;91.88;100498.04;3866508;89;21337;-88
